KSUSKCOU

Guest
Details From KSUS - Spirit Of St Louis
To KCOU - Columbia Rgnl
Flight Number -
Tags Generated
Created
Modified
Stats Distance 74 nm / 136 km
Max Altitude 0 ft / 0 m
Waypoints 2
Social Downloads 0
Likes 0
Share VATSIM

Download

Looking for another format? Having issues loading an existing format? Contact us
Advertisement - Login to hide

Notes

Generated

Route

KSUS KCOU

ID Type Via Altitude Latitude Longitude Leg Dist Tot Dist Heading (true) Name
O KSUS APT - 0 ft / 0 m 38.66414˚ -90.66828˚ - 0 nm - -
O KCOU APT - 0 ft / 0 m 38.82886˚ -92.22501˚ 73 nm 73 nm 278° / 277° -

Altitude Profile

Advertisement - Login to hide

KSUS

Details ICAO KSUS (SUS)
Name SPIRIT OF ST LOUIS
Region United States
Timezone America/Chicago (UTC-6.0)
Stats Elevation 463 ft / 141 m (AMSL)
Location 38.662689° -90.653317°
Runways 2
Magnetic Variation 1.198° W

METAR

KSUS 181954Z 25011G18KT 10SM BKN031 12/05 A3002 RMK AO2 SLP166 T01170050

Decode

TAF

KSUS 181725Z 1818/1918 25009KT P6SM OVC025 FM182000 24009KT P6SM SCT035 FM190000 23006KT P6SM FEW250 FM191400 25006KT P6SM BKN090

Decode

Departure Runways

ID Width Length Bearing (true) Bearing (mag) Surface Threshold Offset Overrun Length
08L 75 ft / 23 m 4,990 ft / 1,521 m 78.04° 79.24° Asphalt 0 ft / 0 m 0 ft / 0 m
08R 150 ft / 46 m 7,470 ft / 2,277 m 78.02° 79.22° Concrete 0 ft / 0 m 0 ft / 0 m
26L 150 ft / 46 m 7,470 ft / 2,277 m 258.03° 259.23° Concrete 481 ft / 147 m 0 ft / 0 m
26R 75 ft / 23 m 4,990 ft / 1,521 m 258.05° 259.25° Asphalt 0 ft / 0 m 0 ft / 0 m

KCOU

Details ICAO KCOU (COU)
Name Columbia Rgnl
Region United States
Timezone America/Chicago (UTC-6.0)
Stats Elevation 889 ft / 271 m (AMSL)
Location 38.819040° -92.219575°
Runways 2
Magnetic Variation 0.045° W

METAR

KCOU 181954Z 24013KT 10SM FEW029 10/04 A3003 RMK AO2 SLP169 T01000039

Decode

TAF

TAF AMD KCOU 181945Z 1820/1918 24012KT P6SM FEW030 FM190000 22008KT P6SM FEW250

Decode

Destination Runways

ID Width Length Bearing (true) Bearing (mag) Surface Threshold Offset Overrun Length
02 150 ft / 46 m 6,510 ft / 1,984 m 21.36° 21.41° Concrete 0 ft / 0 m 0 ft / 0 m
13 75 ft / 23 m 4,399 ft / 1,341 m 135.54° 135.59° Asphalt 0 ft / 0 m 0 ft / 0 m
20 150 ft / 46 m 6,510 ft / 1,984 m 201.36° 201.41° Concrete 0 ft / 0 m 0 ft / 0 m
31 75 ft / 23 m 4,399 ft / 1,341 m 315.54° 315.59° Asphalt 0 ft / 0 m 0 ft / 0 m

Approach Navaids

Runway Type Ident Frequency Range Bearing (true) Bearing (mag) Slope Elevation
02 Localiser ICOU 110.70 MHz 18 nm / 33 km 21.36° 21.41° - 880 ft / 268 m (AMSL)
02 Glidescope ICOU 110.70 MHz 10 nm / 19 km 21.36° 21.41° 2.83° 883 ft / 269 m (AMSL)
02 DME ICOU 110.70 MHz 18 nm / 33 km - - - 889 ft / 271 m (AMSL)

Popular Alternatives